sensor_id;sensor_type;location;lat;lon;timestamp;temperature;humidity
44894;DHT22;30625;52.206;21.030;2022-09-09T00:04:39;11.70;99.90
44894;DHT22;30625;52.206;21.030;2022-09-09T00:15:38;11.50;99.90
44894;DHT22;30625;52.206;21.030;2022-09-09T00:21:01;11.50;99.90
44894;DHT22;30625;52.206;21.030;2022-09-09T00:23:35;11.40;99.90
44894;DHT22;30625;52.206;21.030;2022-09-09T00:26:32;12.30;99.90
44894;DHT22;30625;52.206;21.030;2022-09-09T00:32:00;11.40;99.90
44894;DHT22;30625;52.206;21.030;2022-09-09T00:34:31;11.40;99.90
44894;DHT22;30625;52.206;21.030;2022-09-09T00:37:00;11.40;99.90
44894;DHT22;30625;52.206;21.030;2022-09-09T00:39:42;11.50;99.90
44894;DHT22;30625;52.206;21.030;2022-09-09T00:42:23;11.50;99.90
44894;DHT22;30625;52.206;21.030;2022-09-09T00:44:55;11.60;99.90
44894;DHT22;30625;52.206;21.030;2022-09-09T00:58:17;11.50;99.90
44894;DHT22;30625;52.206;21.030;2022-09-09T01:00:52;11.50;99.90
44894;DHT22;30625;52.206;21.030;2022-09-09T01:11:28;11.60;99.90
44894;DHT22;30625;52.206;21.030;2022-09-09T01:17:04;11.60;99.90
44894;DHT22;30625;52.206;21.030;2022-09-09T01:22:19;11.40;99.90
44894;DHT22;30625;52.206;21.030;2022-09-09T01:27:19;11.40;99.90
44894;DHT22;30625;52.206;21.030;2022-09-09T01:29:46;11.40;99.90
44894;DHT22;30625;52.206;21.030;2022-09-09T01:35:04;11.40;99.90
44894;DHT22;30625;52.206;21.030;2022-09-09T01:37:32;11.50;99.90
44894;DHT22;30625;52.206;21.030;2022-09-09T01:40:05;11.50;99.90
44894;DHT22;30625;52.206;21.030;2022-09-09T01:42:34;11.50;99.90
44894;DHT22;30625;52.206;21.030;2022-09-09T01:44:59;11.60;99.90
44894;DHT22;30625;52.206;21.030;2022-09-09T01:47:25;11.60;99.90
44894;DHT22;30625;52.206;21.030;2022-09-09T01:49:51;10.10;99.90
44894;DHT22;30625;52.206;21.030;2022-09-09T01:52:17;11.50;99.90
44894;DHT22;30625;52.206;21.030;2022-09-09T01:54:43;11.50;99.90
44894;DHT22;30625;52.206;21.030;2022-09-09T01:57:27;9.60;99.90
44894;DHT22;30625;52.206;21.030;2022-09-09T02:05:26;11.50;99.90
44894;DHT22;30625;52.206;21.030;2022-09-09T02:11:27;11.50;99.90
44894;DHT22;30625;52.206;21.030;2022-09-09T02:13:59;11.40;99.90
44894;DHT22;30625;52.206;21.030;2022-09-09T02:19:23;12.10;99.90
44894;DHT22;30625;52.206;21.030;2022-09-09T02:21:53;11.40;99.90
44894;DHT22;30625;52.206;21.030;2022-09-09T02:24:20;11.50;99.90
44894;DHT22;30625;52.206;21.030;2022-09-09T02:26:47;11.40;99.90
44894;DHT22;30625;52.206;21.030;2022-09-09T02:29:19;11.40;99.90
44894;DHT22;30625;52.206;21.030;2022-09-09T02:31:50;11.50;99.90
44894;DHT22;30625;52.206;21.030;2022-09-09T02:34:19;11.40;99.90
44894;DHT22;30625;52.206;21.030;2022-09-09T02:36:46;11.80;99.90
44894;DHT22;30625;52.206;21.030;2022-09-09T02:39:12;11.50;99.90
44894;DHT22;30625;52.206;21.030;2022-09-09T02:41:41;11.50;99.90
44894;DHT22;30625;52.206;21.030;2022-09-09T02:44:12;12.50;99.90
44894;DHT22;30625;52.206;21.030;2022-09-09T02:50:12;11.50;99.90
44894;DHT22;30625;52.206;21.030;2022-09-09T02:55:24;11.60;99.90
44894;DHT22;30625;52.206;21.030;2022-09-09T02:57:54;12.10;99.90
44894;DHT22;30625;52.206;21.030;2022-09-09T03:00:26;12.10;99.90
44894;DHT22;30625;52.206;21.030;2022-09-09T03:02:53;11.60;99.90
44894;DHT22;30625;52.206;21.030;2022-09-09T03:05:20;11.60;99.90
44894;DHT22;30625;52.206;21.030;2022-09-09T03:07:47;11.60;99.90
44894;DHT22;30625;52.206;21.030;2022-09-09T03:10:15;11.70;99.90
44894;DHT22;30625;52.206;21.030;2022-09-09T03:12:43;11.70;99.90
44894;DHT22;30625;52.206;21.030;2022-09-09T03:15:14;11.60;99.90
44894;DHT22;30625;52.206;21.030;2022-09-09T03:17:40;11.90;99.90
44894;DHT22;30625;52.206;21.030;2022-09-09T03:20:07;12.40;99.90
44894;DHT22;30625;52.206;21.030;2022-09-09T03:22:34;11.80;99.90
44894;DHT22;30625;52.206;21.030;2022-09-09T03:25:06;11.80;99.90
44894;DHT22;30625;52.206;21.030;2022-09-09T03:27:37;11.80;99.90
44894;DHT22;30625;52.206;21.030;2022-09-09T03:30:03;10.20;99.90
44894;DHT22;30625;52.206;21.030;2022-09-09T03:32:35;11.80;99.90
44894;DHT22;30625;52.206;21.030;2022-09-09T03:35:01;12.50;99.90
44894;DHT22;30625;52.206;21.030;2022-09-09T03:37:26;12.00;99.90
44894;DHT22;30625;52.206;21.030;2022-09-09T03:39:52;11.80;99.90
44894;DHT22;30625;52.206;21.030;2022-09-09T03:42:23;9.90;99.90
44894;DHT22;30625;52.206;21.030;2022-09-09T03:44:49;11.90;99.90
44894;DHT22;30625;52.206;21.030;2022-09-09T03:47:19;11.90;99.90
44894;DHT22;30625;52.206;21.030;2022-09-09T03:49:45;12.00;99.90
44894;DHT22;30625;52.206;21.030;2022-09-09T03:52:15;11.80;99.90
44894;DHT22;30625;52.206;21.030;2022-09-09T03:54:41;11.90;99.90
44894;DHT22;30625;52.206;21.030;2022-09-09T03:57:09;12.00;99.90
44894;DHT22;30625;52.206;21.030;2022-09-09T03:59:36;11.90;99.90
44894;DHT22;30625;52.206;21.030;2022-09-09T04:02:02;11.90;99.90
44894;DHT22;30625;52.206;21.030;2022-09-09T04:04:28;10.10;99.90
44894;DHT22;30625;52.206;21.030;2022-09-09T04:06:54;11.80;99.90
44894;DHT22;30625;52.206;21.030;2022-09-09T04:09:20;11.60;99.90
44894;DHT22;30625;52.206;21.030;2022-09-09T04:11:46;11.50;99.90
44894;DHT22;30625;52.206;21.030;2022-09-09T04:14:14;12.00;99.90
44894;DHT22;30625;52.206;21.030;2022-09-09T04:16:43;11.90;99.90
44894;DHT22;30625;52.206;21.030;2022-09-09T04:19:10;10.50;99.90
44894;DHT22;30625;52.206;21.030;2022-09-09T04:21:40;11.80;99.90
44894;DHT22;30625;52.206;21.030;2022-09-09T04:24:07;11.90;99.90
44894;DHT22;30625;52.206;21.030;2022-09-09T04:26:34;14.00;99.90
44894;DHT22;30625;52.206;21.030;2022-09-09T04:29:02;11.40;99.90
44894;DHT22;30625;52.206;21.030;2022-09-09T04:31:29;12.10;99.90
44894;DHT22;30625;52.206;21.030;2022-09-09T04:33:54;12.10;99.90
44894;DHT22;30625;52.206;21.030;2022-09-09T04:36:20;11.40;99.90
44894;DHT22;30625;52.206;21.030;2022-09-09T04:38:46;12.20;99.90
44894;DHT22;30625;52.206;21.030;2022-09-09T04:41:14;12.50;99.90
44894;DHT22;30625;52.206;21.030;2022-09-09T04:43:42;12.20;99.90
44894;DHT22;30625;52.206;21.030;2022-09-09T04:46:08;12.20;99.90
44894;DHT22;30625;52.206;21.030;2022-09-09T04:48:34;12.10;99.90
44894;DHT22;30625;52.206;21.030;2022-09-09T04:51:03;12.20;99.90
44894;DHT22;30625;52.206;21.030;2022-09-09T04:53:30;12.10;99.90
44894;DHT22;30625;52.206;21.030;2022-09-09T04:56:10;12.10;99.90
44894;DHT22;30625;52.206;21.030;2022-09-09T04:58:37;12.10;99.90
44894;DHT22;30625;52.206;21.030;2022-09-09T05:01:09;14.00;99.90
44894;DHT22;30625;52.206;21.030;2022-09-09T05:03:36;12.20;99.90
44894;DHT22;30625;52.206;21.030;2022-09-09T05:06:17;12.00;99.90
44894;DHT22;30625;52.206;21.030;2022-09-09T05:08:49;12.20;99.90
44894;DHT22;30625;52.206;21.030;2022-09-09T05:11:16;12.20;99.90
44894;DHT22;30625;52.206;21.030;2022-09-09T05:13:43;12.30;99.90
44894;DHT22;30625;52.206;21.030;2022-09-09T05:16:09;12.30;99.90
44894;DHT22;30625;52.206;21.030;2022-09-09T05:18:37;10.30;99.90
44894;DHT22;30625;52.206;21.030;2022-09-09T05:21:03;12.20;99.90
44894;DHT22;30625;52.206;21.030;2022-09-09T05:23:29;12.30;99.90
44894;DHT22;30625;52.206;21.030;2022-09-09T05:25:56;10.50;99.90
44894;DHT22;30625;52.206;21.030;2022-09-09T05:28:26;12.00;99.90
44894;DHT22;30625;52.206;21.030;2022-09-09T05:30:59;12.40;99.90
44894;DHT22;30625;52.206;21.030;2022-09-09T05:33:27;12.10;99.90
44894;DHT22;30625;52.206;21.030;2022-09-09T05:36:03;12.10;99.90
44894;DHT22;30625;52.206;21.030;2022-09-09T05:38:31;12.20;99.90
44894;DHT22;30625;52.206;21.030;2022-09-09T05:40:58;12.10;99.90
44894;DHT22;30625;52.206;21.030;2022-09-09T05:43:26;12.10;99.90
44894;DHT22;30625;52.206;21.030;2022-09-09T05:46:04;11.20;99.90
44894;DHT22;30625;52.206;21.030;2022-09-09T05:48:31;10.20;99.90
44894;DHT22;30625;52.206;21.030;2022-09-09T05:51:01;12.20;99.90
44894;DHT22;30625;52.206;21.030;2022-09-09T05:53:28;10.60;99.90
44894;DHT22;30625;52.206;21.030;2022-09-09T05:56:07;11.90;99.90
44894;DHT22;30625;52.206;21.030;2022-09-09T05:58:43;12.50;99.90
44894;DHT22;30625;52.206;21.030;2022-09-09T06:01:10;12.40;99.90
44894;DHT22;30625;52.206;21.030;2022-09-09T06:03:38;12.70;99.90
44894;DHT22;30625;52.206;21.030;2022-09-09T06:06:17;11.40;99.90
44894;DHT22;30625;52.206;21.030;2022-09-09T06:08:46;14.40;99.90
44894;DHT22;30625;52.206;21.030;2022-09-09T06:11:16;12.40;99.90
44894;DHT22;30625;52.206;21.030;2022-09-09T06:13:45;12.50;99.90
44894;DHT22;30625;52.206;21.030;2022-09-09T06:16:15;12.40;99.90
44894;DHT22;30625;52.206;21.030;2022-09-09T06:18:42;12.40;99.90
44894;DHT22;30625;52.206;21.030;2022-09-09T06:21:22;12.40;99.90
44894;DHT22;30625;52.206;21.030;2022-09-09T06:23:49;12.40;99.90
44894;DHT22;30625;52.206;21.030;2022-09-09T06:26:23;11.60;99.90
44894;DHT22;30625;52.206;21.030;2022-09-09T06:29:00;12.40;99.90
44894;DHT22;30625;52.206;21.030;2022-09-09T06:31:31;12.40;99.90
44894;DHT22;30625;52.206;21.030;2022-09-09T06:34:00;12.70;99.90
44894;DHT22;30625;52.206;21.030;2022-09-09T06:36:30;12.80;99.90
44894;DHT22;30625;52.206;21.030;2022-09-09T06:39:00;11.30;99.90
44894;DHT22;30625;52.206;21.030;2022-09-09T06:41:27;12.50;99.90
44894;DHT22;30625;52.206;21.030;2022-09-09T06:44:01;10.90;99.90
44894;DHT22;30625;52.206;21.030;2022-09-09T06:46:28;12.60;99.90
44894;DHT22;30625;52.206;21.030;2022-09-09T06:48:56;12.70;99.90
44894;DHT22;30625;52.206;21.030;2022-09-09T06:51:24;12.60;99.90
44894;DHT22;30625;52.206;21.030;2022-09-09T06:53:56;13.20;99.90
44894;DHT22;30625;52.206;21.030;2022-09-09T06:56:25;12.60;99.90
44894;DHT22;30625;52.206;21.030;2022-09-09T06:58:54;12.60;99.90
44894;DHT22;30625;52.206;21.030;2022-09-09T07:01:23;12.40;99.90
44894;DHT22;30625;52.206;21.030;2022-09-09T07:03:51;12.60;99.90
44894;DHT22;30625;52.206;21.030;2022-09-09T07:06:22;12.50;99.90
44894;DHT22;30625;52.206;21.030;2022-09-09T07:08:58;12.60;99.90
44894;DHT22;30625;52.206;21.030;2022-09-09T07:11:37;12.30;99.90
44894;DHT22;30625;52.206;21.030;2022-09-09T07:14:04;12.40;99.90
44894;DHT22;30625;52.206;21.030;2022-09-09T07:16:30;11.10;99.90
44894;DHT22;30625;52.206;21.030;2022-09-09T07:19:01;12.50;99.90
44894;DHT22;30625;52.206;21.030;2022-09-09T07:21:29;11.50;99.90
44894;DHT22;30625;52.206;21.030;2022-09-09T07:23:56;12.60;99.90
44894;DHT22;30625;52.206;21.030;2022-09-09T07:26:24;12.60;99.90
44894;DHT22;30625;52.206;21.030;2022-09-09T07:28:50;11.60;99.90
44894;DHT22;30625;52.206;21.030;2022-09-09T07:31:17;12.70;99.90
44894;DHT22;30625;52.206;21.030;2022-09-09T07:33:44;12.70;99.90
44894;DHT22;30625;52.206;21.030;2022-09-09T07:36:20;12.70;99.90
44894;DHT22;30625;52.206;21.030;2022-09-09T07:38:51;12.80;99.90
44894;DHT22;30625;52.206;21.030;2022-09-09T07:41:25;12.80;99.90
44894;DHT22;30625;52.206;21.030;2022-09-09T07:43:52;12.90;99.90
44894;DHT22;30625;52.206;21.030;2022-09-09T07:46:22;12.80;99.90
44894;DHT22;30625;52.206;21.030;2022-09-09T07:48:53;12.80;99.90
44894;DHT22;30625;52.206;21.030;2022-09-09T07:51:23;12.80;99.90
44894;DHT22;30625;52.206;21.030;2022-09-09T07:53:54;12.80;99.90
44894;DHT22;30625;52.206;21.030;2022-09-09T07:56:21;11.90;99.90
44894;DHT22;30625;52.206;21.030;2022-09-09T07:58:50;12.70;99.90
44894;DHT22;30625;52.206;21.030;2022-09-09T08:01:19;12.60;99.90
44894;DHT22;30625;52.206;21.030;2022-09-09T08:03:46;12.70;99.90
44894;DHT22;30625;52.206;21.030;2022-09-09T08:06:14;12.80;99.90
44894;DHT22;30625;52.206;21.030;2022-09-09T08:08:41;12.80;99.90
44894;DHT22;30625;52.206;21.030;2022-09-09T08:11:13;12.80;99.90
44894;DHT22;30625;52.206;21.030;2022-09-09T08:13:41;12.90;99.90
44894;DHT22;30625;52.206;21.030;2022-09-09T08:16:13;13.00;99.90
44894;DHT22;30625;52.206;21.030;2022-09-09T08:18:40;13.70;99.90
44894;DHT22;30625;52.206;21.030;2022-09-09T08:21:07;13.10;99.90
44894;DHT22;30625;52.206;21.030;2022-09-09T08:23:34;13.10;99.90
44894;DHT22;30625;52.206;21.030;2022-09-09T08:26:05;13.10;99.90
44894;DHT22;30625;52.206;21.030;2022-09-09T08:28:39;13.10;99.90
44894;DHT22;30625;52.206;21.030;2022-09-09T08:31:09;13.10;99.90
44894;DHT22;30625;52.206;21.030;2022-09-09T08:33:35;13.10;99.90
44894;DHT22;30625;52.206;21.030;2022-09-09T08:36:21;13.30;99.90
44894;DHT22;30625;52.206;21.030;2022-09-09T08:50:05;12.90;99.90
44894;DHT22;30625;52.206;21.030;2022-09-09T08:55:53;13.00;99.90
44894;DHT22;30625;52.206;21.030;2022-09-09T08:58:43;13.00;99.90
44894;DHT22;30625;52.206;21.030;2022-09-09T09:01:36;14.10;99.90
44894;DHT22;30625;52.206;21.030;2022-09-09T09:04:21;13.20;99.90
44894;DHT22;30625;52.206;21.030;2022-09-09T09:12:38;13.50;99.90
44894;DHT22;30625;52.206;21.030;2022-09-09T09:15:23;13.40;99.90
44894;DHT22;30625;52.206;21.030;2022-09-09T09:17:51;13.40;99.90
44894;DHT22;30625;52.206;21.030;2022-09-09T09:20:53;13.50;99.90
44894;DHT22;30625;52.206;21.030;2022-09-09T09:23:26;13.30;99.90
44894;DHT22;30625;52.206;21.030;2022-09-09T09:26:10;13.30;99.90
44894;DHT22;30625;52.206;21.030;2022-09-09T09:28:39;13.50;99.90
44894;DHT22;30625;52.206;21.030;2022-09-09T09:31:21;13.30;99.90
44894;DHT22;30625;52.206;21.030;2022-09-09T09:33:55;13.40;99.90
44894;DHT22;30625;52.206;21.030;2022-09-09T09:36:44;13.60;99.90
44894;DHT22;30625;52.206;21.030;2022-09-09T09:39:24;13.30;99.90
44894;DHT22;30625;52.206;21.030;2022-09-09T09:41:51;13.40;99.90
44894;DHT22;30625;52.206;21.030;2022-09-09T09:44:24;11.60;99.90
44894;DHT22;30625;52.206;21.030;2022-09-09T09:46:50;13.40;99.90
44894;DHT22;30625;52.206;21.030;2022-09-09T09:49:16;13.50;99.90
44894;DHT22;30625;52.206;21.030;2022-09-09T09:51:42;12.60;99.90
44894;DHT22;30625;52.206;21.030;2022-09-09T09:56:45;13.40;99.90
44894;DHT22;30625;52.206;21.030;2022-09-09T09:59:36;13.50;99.90
44894;DHT22;30625;52.206;21.030;2022-09-09T10:02:18;13.50;99.90
44894;DHT22;30625;52.206;21.030;2022-09-09T10:04:45;13.60;99.90
44894;DHT22;30625;52.206;21.030;2022-09-09T10:07:20;13.50;99.90
44894;DHT22;30625;52.206;21.030;2022-09-09T10:09:59;11.90;99.90
44894;DHT22;30625;52.206;21.030;2022-09-09T10:24:00;13.50;99.90
44894;DHT22;30625;52.206;21.030;2022-09-09T10:32:37;13.60;99.90
44894;DHT22;30625;52.206;21.030;2022-09-09T10:35:35;13.60;99.90
44894;DHT22;30625;52.206;21.030;2022-09-09T10:41:50;13.70;99.90
44894;DHT22;30625;52.206;21.030;2022-09-09T10:55:20;13.80;99.90
44894;DHT22;30625;52.206;21.030;2022-09-09T10:57:52;13.70;99.90
44894;DHT22;30625;52.206;21.030;2022-09-09T11:00:23;13.80;99.90
44894;DHT22;30625;52.206;21.030;2022-09-09T11:03:14;13.80;99.90
44894;DHT22;30625;52.206;21.030;2022-09-09T11:05:47;13.80;99.90
44894;DHT22;30625;52.206;21.030;2022-09-09T11:08:21;12.40;99.90
44894;DHT22;30625;52.206;21.030;2022-09-09T11:11:04;13.80;99.90
44894;DHT22;30625;52.206;21.030;2022-09-09T11:19:44;13.90;99.90
44894;DHT22;30625;52.206;21.030;2022-09-09T11:22:32;13.90;99.90
44894;DHT22;30625;52.206;21.030;2022-09-09T11:25:15;14.00;99.90
44894;DHT22;30625;52.206;21.030;2022-09-09T11:30:21;13.90;99.90
44894;DHT22;30625;52.206;21.030;2022-09-09T11:32:53;13.90;99.90
44894;DHT22;30625;52.206;21.030;2022-09-09T11:38:27;13.50;99.90
44894;DHT22;30625;52.206;21.030;2022-09-09T11:41:02;13.90;99.90
44894;DHT22;30625;52.206;21.030;2022-09-09T11:46:18;14.00;99.90
44894;DHT22;30625;52.206;21.030;2022-09-09T11:48:58;14.10;99.90
44894;DHT22;30625;52.206;21.030;2022-09-09T11:51:33;14.00;99.90
44894;DHT22;30625;52.206;21.030;2022-09-09T11:54:30;14.00;99.90
44894;DHT22;30625;52.206;21.030;2022-09-09T11:57:14;14.10;99.90
44894;DHT22;30625;52.206;21.030;2022-09-09T11:59:50;14.50;99.90
44894;DHT22;30625;52.206;21.030;2022-09-09T12:02:29;14.20;99.90
44894;DHT22;30625;52.206;21.030;2022-09-09T12:12:49;14.40;99.90
44894;DHT22;30625;52.206;21.030;2022-09-09T12:15:24;14.30;99.90
44894;DHT22;30625;52.206;21.030;2022-09-09T12:17:52;14.10;99.90
44894;DHT22;30625;52.206;21.030;2022-09-09T12:20:40;13.90;99.90
44894;DHT22;30625;52.206;21.030;2022-09-09T12:23:27;14.00;99.90
44894;DHT22;30625;52.206;21.030;2022-09-09T12:29:12;13.90;99.90
44894;DHT22;30625;52.206;21.030;2022-09-09T12:31:56;14.10;99.90
44894;DHT22;30625;52.206;21.030;2022-09-09T12:34:32;14.00;99.90
44894;DHT22;30625;52.206;21.030;2022-09-09T12:40:00;14.20;99.90
44894;DHT22;30625;52.206;21.030;2022-09-09T12:42:30;14.20;99.90
44894;DHT22;30625;52.206;21.030;2022-09-09T12:45:00;14.20;99.90
44894;DHT22;30625;52.206;21.030;2022-09-09T12:47:42;14.20;99.90
44894;DHT22;30625;52.206;21.030;2022-09-09T12:50:19;16.60;99.90
44894;DHT22;30625;52.206;21.030;2022-09-09T12:52:53;14.40;99.90
44894;DHT22;30625;52.206;21.030;2022-09-09T12:55:27;12.30;99.90
44894;DHT22;30625;52.206;21.030;2022-09-09T12:58:02;14.30;99.90
44894;DHT22;30625;52.206;21.030;2022-09-09T13:00:32;14.20;99.90
44894;DHT22;30625;52.206;21.030;2022-09-09T13:03:13;14.30;99.90
44894;DHT22;30625;52.206;21.030;2022-09-09T13:05:40;14.20;99.90
44894;DHT22;30625;52.206;21.030;2022-09-09T13:08:10;14.30;99.90
44894;DHT22;30625;52.206;21.030;2022-09-09T13:10:44;14.30;99.90
44894;DHT22;30625;52.206;21.030;2022-09-09T13:13:17;14.20;99.90
44894;DHT22;30625;52.206;21.030;2022-09-09T13:15:54;14.20;99.90
44894;DHT22;30625;52.206;21.030;2022-09-09T13:18:35;14.00;99.90
44894;DHT22;30625;52.206;21.030;2022-09-09T13:21:04;14.00;99.90
44894;DHT22;30625;52.206;21.030;2022-09-09T13:23:35;14.00;99.90
44894;DHT22;30625;52.206;21.030;2022-09-09T13:26:22;14.10;99.90
44894;DHT22;30625;52.206;21.030;2022-09-09T13:28:50;14.10;99.90
44894;DHT22;30625;52.206;21.030;2022-09-09T13:31:40;12.60;99.90
44894;DHT22;30625;52.206;21.030;2022-09-09T13:34:25;13.90;99.90
44894;DHT22;30625;52.206;21.030;2022-09-09T13:37:05;14.00;99.90
44894;DHT22;30625;52.206;21.030;2022-09-09T13:39:37;14.00;99.90
44894;DHT22;30625;52.206;21.030;2022-09-09T13:42:06;14.10;99.90
44894;DHT22;30625;52.206;21.030;2022-09-09T13:44:46;14.40;99.90
44894;DHT22;30625;52.206;21.030;2022-09-09T13:47:18;14.20;99.90
44894;DHT22;30625;52.206;21.030;2022-09-09T13:50:09;14.20;99.90
44894;DHT22;30625;52.206;21.030;2022-09-09T13:52:35;14.50;99.90
44894;DHT22;30625;52.206;21.030;2022-09-09T13:55:10;14.30;99.90
44894;DHT22;30625;52.206;21.030;2022-09-09T13:57:39;14.40;99.90
44894;DHT22;30625;52.206;21.030;2022-09-09T14:00:18;14.30;99.90
44894;DHT22;30625;52.206;21.030;2022-09-09T14:02:46;14.10;99.90
44894;DHT22;30625;52.206;21.030;2022-09-09T14:05:15;13.10;99.90
44894;DHT22;30625;52.206;21.030;2022-09-09T14:07:44;14.10;99.90
44894;DHT22;30625;52.206;21.030;2022-09-09T14:10:15;12.40;99.90
44894;DHT22;30625;52.206;21.030;2022-09-09T14:12:44;14.00;99.90
44894;DHT22;30625;52.206;21.030;2022-09-09T14:15:12;14.10;99.90
44894;DHT22;30625;52.206;21.030;2022-09-09T14:17:38;14.00;99.90
44894;DHT22;30625;52.206;21.030;2022-09-09T14:20:05;14.10;99.90
44894;DHT22;30625;52.206;21.030;2022-09-09T14:22:35;14.10;99.90
44894;DHT22;30625;52.206;21.030;2022-09-09T14:25:01;14.20;99.90
44894;DHT22;30625;52.206;21.030;2022-09-09T14:27:37;14.20;99.90
44894;DHT22;30625;52.206;21.030;2022-09-09T14:30:06;13.90;99.90
44894;DHT22;30625;52.206;21.030;2022-09-09T14:32:33;14.20;99.90
44894;DHT22;30625;52.206;21.030;2022-09-09T14:34:58;14.50;99.90
44894;DHT22;30625;52.206;21.030;2022-09-09T14:37:24;14.30;99.90
44894;DHT22;30625;52.206;21.030;2022-09-09T14:39:50;14.30;99.90
44894;DHT22;30625;52.206;21.030;2022-09-09T14:42:17;14.30;99.90
44894;DHT22;30625;52.206;21.030;2022-09-09T14:44:42;12.90;99.90
44894;DHT22;30625;52.206;21.030;2022-09-09T14:47:08;14.40;99.90
44894;DHT22;30625;52.206;21.030;2022-09-09T14:49:35;14.40;99.90
44894;DHT22;30625;52.206;21.030;2022-09-09T14:52:04;14.30;99.90
44894;DHT22;30625;52.206;21.030;2022-09-09T14:54:33;14.20;99.90
44894;DHT22;30625;52.206;21.030;2022-09-09T14:56:59;14.30;99.90
44894;DHT22;30625;52.206;21.030;2022-09-09T14:59:25;14.30;99.90
44894;DHT22;30625;52.206;21.030;2022-09-09T15:01:54;14.80;99.90
44894;DHT22;30625;52.206;21.030;2022-09-09T15:04:32;14.70;99.90
44894;DHT22;30625;52.206;21.030;2022-09-09T15:06:58;14.10;99.90
44894;DHT22;30625;52.206;21.030;2022-09-09T15:09:26;14.20;99.90
44894;DHT22;30625;52.206;21.030;2022-09-09T15:12:04;14.40;99.90
44894;DHT22;30625;52.206;21.030;2022-09-09T15:14:30;14.30;99.90
44894;DHT22;30625;52.206;21.030;2022-09-09T15:16:58;14.30;99.90
44894;DHT22;30625;52.206;21.030;2022-09-09T15:19:27;15.60;99.90
44894;DHT22;30625;52.206;21.030;2022-09-09T15:21:53;14.20;99.90
44894;DHT22;30625;52.206;21.030;2022-09-09T15:24:22;14.10;99.90
44894;DHT22;30625;52.206;21.030;2022-09-09T15:26:48;14.10;99.90
44894;DHT22;30625;52.206;21.030;2022-09-09T15:29:17;13.50;99.90
44894;DHT22;30625;52.206;21.030;2022-09-09T15:31:45;12.80;99.90
44894;DHT22;30625;52.206;21.030;2022-09-09T15:34:17;12.60;99.90
44894;DHT22;30625;52.206;21.030;2022-09-09T15:36:52;14.10;99.90
44894;DHT22;30625;52.206;21.030;2022-09-09T15:39:24;14.10;99.90
44894;DHT22;30625;52.206;21.030;2022-09-09T15:41:52;14.20;99.90
44894;DHT22;30625;52.206;21.030;2022-09-09T15:44:20;16.30;99.90
44894;DHT22;30625;52.206;21.030;2022-09-09T15:46:51;14.20;99.90
44894;DHT22;30625;52.206;21.030;2022-09-09T15:49:25;13.50;99.90
44894;DHT22;30625;52.206;21.030;2022-09-09T15:51:56;14.40;99.90
44894;DHT22;30625;52.206;21.030;2022-09-09T15:54:26;14.40;99.90
44894;DHT22;30625;52.206;21.030;2022-09-09T15:56:56;13.70;99.90
44894;DHT22;30625;52.206;21.030;2022-09-09T15:59:24;14.30;99.90
44894;DHT22;30625;52.206;21.030;2022-09-09T16:01:50;14.30;99.90
44894;DHT22;30625;52.206;21.030;2022-09-09T16:04:19;14.30;99.90
44894;DHT22;30625;52.206;21.030;2022-09-09T16:07:00;12.80;99.90
44894;DHT22;30625;52.206;21.030;2022-09-09T16:09:27;14.30;99.90
44894;DHT22;30625;52.206;21.030;2022-09-09T16:11:56;14.30;99.90
44894;DHT22;30625;52.206;21.030;2022-09-09T16:14:23;14.30;99.90
44894;DHT22;30625;52.206;21.030;2022-09-09T16:16:50;14.30;99.90
44894;DHT22;30625;52.206;21.030;2022-09-09T16:19:16;14.30;99.90
44894;DHT22;30625;52.206;21.030;2022-09-09T16:21:47;14.30;99.90
44894;DHT22;30625;52.206;21.030;2022-09-09T16:24:16;14.20;99.90
44894;DHT22;30625;52.206;21.030;2022-09-09T16:26:45;14.30;99.90
44894;DHT22;30625;52.206;21.030;2022-09-09T16:29:12;14.30;99.90
44894;DHT22;30625;52.206;21.030;2022-09-09T16:31:41;14.30;99.90
44894;DHT22;30625;52.206;21.030;2022-09-09T16:34:07;14.30;99.90
44894;DHT22;30625;52.206;21.030;2022-09-09T16:36:39;14.30;99.90
44894;DHT22;30625;52.206;21.030;2022-09-09T16:39:10;14.20;99.90
44894;DHT22;30625;52.206;21.030;2022-09-09T16:41:38;14.10;99.90
44894;DHT22;30625;52.206;21.030;2022-09-09T16:44:06;14.10;99.90
44894;DHT22;30625;52.206;21.030;2022-09-09T16:46:34;14.10;99.90
44894;DHT22;30625;52.206;21.030;2022-09-09T16:49:10;14.10;99.90
44894;DHT22;30625;52.206;21.030;2022-09-09T16:51:45;14.10;99.90
44894;DHT22;30625;52.206;21.030;2022-09-09T16:54:12;12.10;99.90
44894;DHT22;30625;52.206;21.030;2022-09-09T16:56:41;14.10;99.90
44894;DHT22;30625;52.206;21.030;2022-09-09T16:59:18;14.00;99.90
44894;DHT22;30625;52.206;21.030;2022-09-09T17:01:49;13.90;99.90
44894;DHT22;30625;52.206;21.030;2022-09-09T17:04:17;14.00;99.90
44894;DHT22;30625;52.206;21.030;2022-09-09T17:06:50;14.00;99.90
44894;DHT22;30625;52.206;21.030;2022-09-09T17:09:18;14.00;99.90
44894;DHT22;30625;52.206;21.030;2022-09-09T17:11:45;14.00;99.90
44894;DHT22;30625;52.206;21.030;2022-09-09T17:14:15;14.00;99.90
44894;DHT22;30625;52.206;21.030;2022-09-09T17:16:41;14.00;99.90
44894;DHT22;30625;52.206;21.030;2022-09-09T17:19:07;13.90;99.90
44894;DHT22;30625;52.206;21.030;2022-09-09T17:21:34;13.90;99.90
44894;DHT22;30625;52.206;21.030;2022-09-09T17:24:00;13.90;99.90
44894;DHT22;30625;52.206;21.030;2022-09-09T17:26:41;13.90;99.90
44894;DHT22;30625;52.206;21.030;2022-09-09T17:29:10;13.80;99.90
44894;DHT22;30625;52.206;21.030;2022-09-09T17:31:39;13.40;99.90
44894;DHT22;30625;52.206;21.030;2022-09-09T17:34:28;13.90;99.90
44894;DHT22;30625;52.206;21.030;2022-09-09T17:36:54;15.10;99.90
44894;DHT22;30625;52.206;21.030;2022-09-09T17:39:20;13.80;99.90
44894;DHT22;30625;52.206;21.030;2022-09-09T17:41:46;14.00;99.90
44894;DHT22;30625;52.206;21.030;2022-09-09T17:47:13;13.80;99.90
44894;DHT22;30625;52.206;21.030;2022-09-09T17:49:51;15.40;99.90
44894;DHT22;30625;52.206;21.030;2022-09-09T17:52:17;13.80;99.90
44894;DHT22;30625;52.206;21.030;2022-09-09T17:54:43;13.80;99.90
44894;DHT22;30625;52.206;21.030;2022-09-09T18:09:44;12.60;99.90
44894;DHT22;30625;52.206;21.030;2022-09-09T18:12:32;13.10;99.90
44894;DHT22;30625;52.206;21.030;2022-09-09T18:21:11;13.80;99.90
44894;DHT22;30625;52.206;21.030;2022-09-09T18:23:41;13.90;99.90
44894;DHT22;30625;52.206;21.030;2022-09-09T18:26:42;13.70;99.90
44894;DHT22;30625;52.206;21.030;2022-09-09T18:29:11;11.60;99.90
44894;DHT22;30625;52.206;21.030;2022-09-09T18:31:52;13.80;99.90